createdAt,value
2023-01-09T00:00:01.242Z,983.46
2023-01-09T00:01:01.242Z,983.45
2023-01-09T00:02:01.219Z,983.38
2023-01-09T00:03:01.220Z,983.43
2023-01-09T00:04:01.219Z,983.38
2023-01-09T00:05:01.212Z,983.37
2023-01-09T00:06:02.181Z,983.32
2023-01-09T00:07:01.162Z,983.33
2023-01-09T00:08:01.156Z,983.38
2023-01-09T00:09:01.144Z,983.36
2023-01-09T00:10:01.154Z,983.38
2023-01-09T00:11:01.122Z,983.4
2023-01-09T00:12:01.113Z,983.37
2023-01-09T00:13:01.100Z,983.34
2023-01-09T00:14:01.095Z,983.28
2023-01-09T00:15:01.083Z,983.26
2023-01-09T00:16:01.082Z,983.24
2023-01-09T00:17:01.058Z,983.22
2023-01-09T00:18:01.049Z,983.22
2023-01-09T00:19:01.037Z,983.22
2023-01-09T00:20:01.029Z,983.18
2023-01-09T00:21:01.017Z,983.15
2023-01-09T00:22:01.019Z,983.22
2023-01-09T00:23:01.010Z,983.15
2023-01-09T00:24:00.989Z,983.13
2023-01-09T00:25:00.982Z,983.17
2023-01-09T00:26:00.973Z,983.16
2023-01-09T00:27:00.955Z,983.12
2023-01-09T00:28:00.957Z,983.1
2023-01-09T00:29:00.930Z,983.11
2023-01-09T00:30:00.921Z,983.08
2023-01-09T00:31:00.914Z,983.09
2023-01-09T00:32:00.898Z,983.11
2023-01-09T00:33:00.910Z,983.11
2023-01-09T00:34:00.896Z,983.11
2023-01-09T00:35:00.867Z,983.08
2023-01-09T00:36:00.859Z,983.06
2023-01-09T00:37:00.848Z,983.08
2023-01-09T00:38:00.836Z,983.01
2023-01-09T00:39:00.830Z,983.05
2023-01-09T00:40:00.838Z,982.98
2023-01-09T00:41:00.818Z,983.03
2023-01-09T00:42:00.795Z,982.96
2023-01-09T00:43:00.790Z,983.03
2023-01-09T00:44:00.783Z,982.96
2023-01-09T00:45:00.769Z,983.01
2023-01-09T00:46:00.755Z,983
2023-01-09T00:47:00.753Z,983.03
2023-01-09T00:48:00.732Z,983.04
2023-01-09T00:49:00.729Z,983.01
2023-01-09T00:50:00.724Z,983.08
2023-01-09T00:51:00.708Z,983.04
2023-01-09T00:52:00.696Z,983.01
2023-01-09T00:53:00.674Z,983.09
2023-01-09T00:54:00.668Z,983.02
2023-01-09T00:55:00.660Z,983.05
2023-01-09T00:56:00.658Z,983.01
2023-01-09T00:57:00.649Z,983.05
2023-01-09T00:58:00.635Z,983.09
2023-01-09T00:59:00.633Z,983.03
2023-01-09T01:00:00.603Z,983.06
2023-01-09T01:01:00.592Z,983.04
2023-01-09T01:02:00.599Z,983.06
2023-01-09T01:03:00.587Z,983
2023-01-09T01:04:00.568Z,983.06
2023-01-09T01:05:00.570Z,983.04
2023-01-09T01:06:00.541Z,983.03
2023-01-09T01:07:00.533Z,983.06
2023-01-09T01:08:00.525Z,983.07
2023-01-09T01:09:00.509Z,983.02
2023-01-09T01:10:00.539Z,983.05
2023-01-09T01:11:00.486Z,983.09
2023-01-09T01:12:00.479Z,983.04
2023-01-09T01:13:00.471Z,983.06
2023-01-09T01:14:00.480Z,983.13
2023-01-09T01:15:00.451Z,983.1
2023-01-09T01:16:00.437Z,983.14
2023-01-09T01:17:00.454Z,983.1
2023-01-09T01:18:00.415Z,983.14
2023-01-09T01:19:00.419Z,983.09
2023-01-09T01:20:00.394Z,983.09
2023-01-09T01:21:00.386Z,983.07
2023-01-09T01:22:00.384Z,983.06
2023-01-09T01:23:00.369Z,983.12
2023-01-09T01:24:00.350Z,983.14
2023-01-09T01:25:00.347Z,983.1
2023-01-09T01:26:00.373Z,983.08
2023-01-09T01:27:00.347Z,983.12
2023-01-09T01:28:00.321Z,983.18
2023-01-09T01:29:00.303Z,983.13
2023-01-09T01:30:00.306Z,983.08
2023-01-09T01:31:00.305Z,983.09
2023-01-09T01:32:00.273Z,983.16
2023-01-09T01:33:00.259Z,983.1
2023-01-09T01:34:00.326Z,983.17
2023-01-09T01:35:00.237Z,983.12
2023-01-09T01:36:00.223Z,983.14
2023-01-09T01:37:00.224Z,983.16
2023-01-09T01:38:00.206Z,983.08
2023-01-09T01:39:00.257Z,983.13
2023-01-09T01:40:00.200Z,983.2
2023-01-09T01:41:00.169Z,983.18
2023-01-09T01:42:00.162Z,983.22
2023-01-09T01:43:00.150Z,983.17
2023-01-09T01:44:00.143Z,983.19
2023-01-09T01:45:00.132Z,983.22
2023-01-09T01:46:00.122Z,983.21
2023-01-09T01:47:00.124Z,983.23
2023-01-09T01:48:00.102Z,983.19
2023-01-09T01:49:00.087Z,983.19
2023-01-09T01:50:00.078Z,983.24
2023-01-09T01:51:00.071Z,983.21
2023-01-09T01:52:00.083Z,983.2
2023-01-09T01:53:00.044Z,983.17
2023-01-09T01:54:00.048Z,983.18
2023-01-09T01:55:00.036Z,983.18
2023-01-09T01:56:00.012Z,983.16
2023-01-09T01:57:00.010Z,983.15
2023-01-09T01:57:59.998Z,983.2
2023-01-09T01:58:59.987Z,983.15
2023-01-09T02:00:00.031Z,983.2
2023-01-09T02:00:59.963Z,983.2
2023-01-09T02:01:59.952Z,983.14
2023-01-09T02:02:59.950Z,983.2
2023-01-09T02:03:59.952Z,983.2
2023-01-09T02:04:59.918Z,983.22
2023-01-09T02:05:59.909Z,983.24
2023-01-09T02:06:59.907Z,983.14
2023-01-09T02:07:59.884Z,983.18
2023-01-09T02:08:59.880Z,983.14
2023-01-09T02:09:59.867Z,983.11
2023-01-09T02:10:59.855Z,983.14
2023-01-09T02:11:59.850Z,983.13
2023-01-09T02:12:59.865Z,983.06
2023-01-09T02:13:59.828Z,983.13
2023-01-09T02:14:59.816Z,983.1
2023-01-09T02:15:59.806Z,983.09
2023-01-09T02:16:59.789Z,983.08
2023-01-09T02:17:59.786Z,983.08
2023-01-09T02:18:59.792Z,983.04
2023-01-09T02:19:59.768Z,983.13
2023-01-09T02:20:59.759Z,983.06
2023-01-09T02:21:59.737Z,983.13
2023-01-09T02:22:59.723Z,983.09
2023-01-09T02:23:59.716Z,983.11
2023-01-09T02:24:59.724Z,983.03
2023-01-09T02:25:59.699Z,983.16
2023-01-09T02:26:59.682Z,983.1
2023-01-09T02:27:59.688Z,983.18
2023-01-09T02:28:59.663Z,983.1
2023-01-09T02:29:59.651Z,983.1
2023-01-09T02:30:59.662Z,983.15
2023-01-09T02:31:59.631Z,983.13
2023-01-09T02:32:59.628Z,983.02
2023-01-09T02:33:59.618Z,983.04
2023-01-09T02:34:59.599Z,983.08
2023-01-09T02:35:59.596Z,983.05
2023-01-09T02:36:59.574Z,983.01
2023-01-09T02:37:59.608Z,983.06
2023-01-09T02:38:59.559Z,983.02
2023-01-09T02:39:59.566Z,983.03
2023-01-09T02:40:59.539Z,983.03
2023-01-09T02:41:59.529Z,983.01
2023-01-09T02:42:59.541Z,982.98
2023-01-09T02:43:59.515Z,982.94
2023-01-09T02:44:59.502Z,983.02
2023-01-09T02:45:59.495Z,983
2023-01-09T02:46:59.527Z,983.05
2023-01-09T02:47:59.472Z,982.95
2023-01-09T02:48:59.465Z,983.02
2023-01-09T02:49:59.446Z,983
2023-01-09T02:50:59.434Z,983.02
2023-01-09T02:51:59.418Z,982.9
2023-01-09T02:52:59.410Z,983
2023-01-09T02:53:59.410Z,982.94
2023-01-09T02:54:59.386Z,982.97
2023-01-09T02:55:59.378Z,983.03
2023-01-09T02:56:59.364Z,982.89
2023-01-09T02:57:59.366Z,983.01
2023-01-09T02:58:59.350Z,982.99
2023-01-09T02:59:59.368Z,982.98
2023-01-09T03:00:59.322Z,983.02
2023-01-09T03:01:59.318Z,983.02
2023-01-09T03:02:59.314Z,983
2023-01-09T03:03:59.349Z,983.02
2023-01-09T03:04:59.281Z,983.06
2023-01-09T03:05:59.293Z,982.9
2023-01-09T03:06:59.275Z,982.99
2023-01-09T03:07:59.310Z,983.1
2023-01-09T03:08:59.239Z,983.02
2023-01-09T03:09:59.232Z,983.01
2023-01-09T03:10:59.222Z,982.96
2023-01-09T03:11:59.202Z,982.92
2023-01-09T03:12:59.209Z,982.9
2023-01-09T03:13:59.191Z,982.91
2023-01-09T03:14:59.180Z,982.94
2023-01-09T03:15:59.169Z,982.92
2023-01-09T03:16:59.151Z,982.93
2023-01-09T03:17:59.174Z,982.9
2023-01-09T03:18:59.163Z,982.92
2023-01-09T03:19:59.120Z,982.92
2023-01-09T03:20:59.109Z,982.92
2023-01-09T03:21:59.118Z,982.88
2023-01-09T03:22:59.101Z,982.83
2023-01-09T03:23:59.075Z,982.83
2023-01-09T03:24:59.068Z,982.81
2023-01-09T03:25:59.071Z,982.83
2023-01-09T03:26:59.098Z,982.78
2023-01-09T03:27:59.050Z,982.85
2023-01-09T03:28:59.021Z,982.83
2023-01-09T03:29:59.097Z,982.77
2023-01-09T03:30:59.000Z,982.81
2023-01-09T03:31:59.000Z,982.82
2023-01-09T03:32:59.014Z,982.79
2023-01-09T03:33:58.983Z,982.83
2023-01-09T03:34:58.960Z,982.85
2023-01-09T03:35:58.953Z,982.83
2023-01-09T03:36:58.949Z,982.76
2023-01-09T03:37:58.925Z,982.83
2023-01-09T03:38:58.915Z,982.82
2023-01-09T03:39:58.903Z,982.79
2023-01-09T03:40:58.899Z,982.85
2023-01-09T03:41:58.882Z,982.82
2023-01-09T03:42:58.868Z,982.8
2023-01-09T03:43:58.888Z,982.76
2023-01-09T03:44:58.863Z,982.8
2023-01-09T03:45:58.839Z,982.81
2023-01-09T03:46:58.875Z,982.82
2023-01-09T03:47:58.831Z,982.77
2023-01-09T03:48:58.814Z,982.86
2023-01-09T03:49:58.799Z,982.82
2023-01-09T03:50:58.790Z,982.87
2023-01-09T03:51:58.808Z,982.85
2023-01-09T03:52:58.787Z,982.84
2023-01-09T03:53:58.751Z,982.81
2023-01-09T03:54:58.748Z,982.83
2023-01-09T03:55:58.736Z,982.8
2023-01-09T03:56:58.736Z,982.86
2023-01-09T03:57:58.711Z,982.93
2023-01-09T03:58:58.742Z,982.81
2023-01-09T03:59:58.695Z,982.83
2023-01-09T04:00:58.688Z,982.84
2023-01-09T04:01:58.689Z,982.91
2023-01-09T04:02:58.687Z,982.86
2023-01-09T04:03:58.650Z,982.82
2023-01-09T04:04:58.636Z,982.89
2023-01-09T04:05:58.637Z,982.87
2023-01-09T04:06:58.612Z,982.97
2023-01-09T04:07:58.614Z,982.89
2023-01-09T04:08:58.590Z,982.9
2023-01-09T04:09:58.594Z,982.89
2023-01-09T04:10:58.572Z,982.92
2023-01-09T04:11:58.560Z,982.96
2023-01-09T04:12:58.588Z,982.96
2023-01-09T04:13:58.541Z,982.97
2023-01-09T04:14:58.540Z,982.96
2023-01-09T04:15:58.517Z,982.98
2023-01-09T04:16:58.503Z,982.99
2023-01-09T04:17:58.505Z,983.08
2023-01-09T04:18:58.513Z,983.04
2023-01-09T04:19:58.475Z,983.07
2023-01-09T04:20:58.463Z,983.13
2023-01-09T04:21:58.508Z,983.15
2023-01-09T04:22:58.442Z,983.16
2023-01-09T04:23:58.445Z,983.15
2023-01-09T04:24:58.420Z,983.16
2023-01-09T04:25:58.414Z,983.15
2023-01-09T04:26:58.403Z,983.17
2023-01-09T04:27:58.393Z,983.23
2023-01-09T04:28:58.378Z,983.18
2023-01-09T04:29:58.363Z,983.17
2023-01-09T04:30:58.362Z,983.25
2023-01-09T04:31:58.366Z,983.26
2023-01-09T04:32:58.336Z,983.27
2023-01-09T04:33:58.323Z,983.29
2023-01-09T04:34:58.316Z,983.28
2023-01-09T04:35:58.306Z,983.26
2023-01-09T04:36:58.329Z,983.26
2023-01-09T04:37:58.294Z,983.29
2023-01-09T04:38:58.302Z,983.35
2023-01-09T04:39:58.259Z,983.41
2023-01-09T04:40:58.252Z,983.45
2023-01-09T04:41:58.252Z,983.41
2023-01-09T04:42:58.235Z,983.44
2023-01-09T04:43:58.238Z,983.45
2023-01-09T04:44:58.203Z,983.46
2023-01-09T04:45:58.213Z,983.53
2023-01-09T04:46:58.184Z,983.44
2023-01-09T04:47:58.177Z,983.51
2023-01-09T04:48:58.182Z,983.57
2023-01-09T04:49:58.158Z,983.59
2023-01-09T04:50:58.142Z,983.5
2023-01-09T04:51:58.126Z,983.51
2023-01-09T04:52:58.126Z,983.42
2023-01-09T04:53:58.109Z,983.47
2023-01-09T04:54:58.104Z,983.38
2023-01-09T04:55:58.084Z,983.44
2023-01-09T04:56:58.072Z,983.45
2023-01-09T04:57:58.062Z,983.49
2023-01-09T04:58:58.083Z,983.48
2023-01-09T04:59:58.054Z,983.54
2023-01-09T05:00:58.033Z,983.48
2023-01-09T05:01:58.021Z,983.57
2023-01-09T05:02:58.006Z,983.54
2023-01-09T05:03:58.011Z,983.57
2023-01-09T05:04:58.019Z,983.56
2023-01-09T05:05:57.980Z,983.59
2023-01-09T05:06:57.974Z,983.61
2023-01-09T05:07:57.957Z,983.66
2023-01-09T05:08:57.947Z,983.65
2023-01-09T05:09:57.937Z,983.68
2023-01-09T05:10:57.942Z,983.69
2023-01-09T05:11:57.918Z,983.71
2023-01-09T05:12:57.905Z,983.79
2023-01-09T05:13:57.894Z,983.82
2023-01-09T05:15:48.516Z,983.87
2023-01-09T05:16:48.508Z,983.89
2023-01-09T05:17:48.503Z,983.87
2023-01-09T05:18:48.481Z,983.95
2023-01-09T05:19:48.467Z,983.86
2023-01-09T05:20:48.458Z,983.92
2023-01-09T05:21:48.449Z,983.95
2023-01-09T05:22:48.438Z,983.94
2023-01-09T05:23:48.431Z,984.03
2023-01-09T05:24:48.412Z,983.99
2023-01-09T05:25:48.402Z,983.98
2023-01-09T05:26:48.394Z,984.04
2023-01-09T05:27:48.384Z,984.01
2023-01-09T05:28:48.386Z,984.06
2023-01-09T05:29:48.379Z,984.08
2023-01-09T05:30:48.351Z,984.04
2023-01-09T05:31:48.344Z,984.11
2023-01-09T05:32:48.330Z,984.05
2023-01-09T05:33:48.340Z,984.08
2023-01-09T05:34:48.314Z,984.01
2023-01-09T05:35:48.319Z,984.17
2023-01-09T05:36:48.292Z,984.09
2023-01-09T05:37:48.277Z,984.22
2023-01-09T05:38:48.335Z,984.15
2023-01-09T05:39:48.257Z,984.17
2023-01-09T05:40:48.252Z,984.21
2023-01-09T05:41:48.260Z,984.2
2023-01-09T05:42:48.228Z,984.25
2023-01-09T05:43:48.227Z,984.29
2023-01-09T05:44:48.202Z,984.25
2023-01-09T05:45:48.202Z,984.26
2023-01-09T05:46:48.192Z,984.28
2023-01-09T05:47:48.186Z,984.3
2023-01-09T05:48:48.194Z,984.3
2023-01-09T05:49:48.152Z,984.28
2023-01-09T05:50:48.153Z,984.32
2023-01-09T05:51:48.131Z,984.31
2023-01-09T05:52:48.143Z,984.37
2023-01-09T05:53:48.109Z,984.38
2023-01-09T05:54:48.100Z,984.36
2023-01-09T05:55:48.092Z,984.37
2023-01-09T05:56:48.079Z,984.35
2023-01-09T05:57:48.075Z,984.35
2023-01-09T05:58:48.059Z,984.38
2023-01-09T05:59:48.046Z,984.44
2023-01-09T06:00:48.040Z,984.37
2023-01-09T06:01:48.029Z,984.39
2023-01-09T06:02:48.017Z,984.45
2023-01-09T06:03:48.014Z,984.44
2023-01-09T06:04:47.997Z,984.48
2023-01-09T06:05:47.985Z,984.46
2023-01-09T06:06:47.978Z,984.46
2023-01-09T06:07:47.964Z,984.48
2023-01-09T06:08:47.956Z,984.55
2023-01-09T06:09:47.963Z,984.5
2023-01-09T06:10:47.947Z,984.51
2023-01-09T06:11:47.921Z,984.52
2023-01-09T06:12:47.917Z,984.6
2023-01-09T06:13:47.897Z,984.58
2023-01-09T06:14:47.889Z,984.55
2023-01-09T06:15:47.891Z,984.59
2023-01-09T06:16:47.879Z,984.6
2023-01-09T06:17:47.861Z,984.59
2023-01-09T06:18:47.857Z,984.57
2023-01-09T06:19:47.835Z,984.61
2023-01-09T06:20:47.829Z,984.6
2023-01-09T06:21:47.829Z,984.58
2023-01-09T06:22:47.821Z,984.6
2023-01-09T06:23:47.794Z,984.63
2023-01-09T06:24:47.784Z,984.7
2023-01-09T06:25:47.773Z,984.7
2023-01-09T06:26:47.784Z,984.65
2023-01-09T06:27:47.754Z,984.71
2023-01-09T06:28:47.744Z,984.73
2023-01-09T06:29:47.730Z,984.72
2023-01-09T06:30:47.719Z,984.75
2023-01-09T06:31:47.711Z,984.75
2023-01-09T06:32:47.704Z,984.74
2023-01-09T06:33:47.702Z,984.75
2023-01-09T06:34:47.685Z,984.69
2023-01-09T06:35:47.672Z,984.67
2023-01-09T06:36:47.667Z,984.75
2023-01-09T06:37:47.650Z,984.71
2023-01-09T06:38:47.650Z,984.77
2023-01-09T06:39:47.632Z,984.76
2023-01-09T06:40:47.612Z,984.76
2023-01-09T06:41:47.615Z,984.89
2023-01-09T06:42:47.595Z,984.91
2023-01-09T06:43:47.585Z,984.91
2023-01-09T06:44:47.583Z,984.84
2023-01-09T06:45:47.566Z,984.8
2023-01-09T06:46:47.566Z,984.91
2023-01-09T06:47:47.542Z,984.89
2023-01-09T06:48:47.534Z,984.92
2023-01-09T06:49:47.534Z,984.93
2023-01-09T06:50:47.512Z,984.97
2023-01-09T06:51:47.516Z,984.97
2023-01-09T06:52:47.489Z,984.98
2023-01-09T06:53:47.481Z,984.99
2023-01-09T06:54:47.467Z,985.05
2023-01-09T06:55:47.456Z,985.07
2023-01-09T06:56:47.446Z,985.03
2023-01-09T06:57:47.436Z,985.02
2023-01-09T06:58:47.423Z,985.08
2023-01-09T06:59:47.420Z,985.08
2023-01-09T07:00:47.406Z,985.14
2023-01-09T07:01:47.395Z,985.12
2023-01-09T07:02:47.381Z,985.14
2023-01-09T07:03:47.398Z,985.14
2023-01-09T07:04:47.363Z,985.16
2023-01-09T07:05:47.356Z,985.18
2023-01-09T07:06:47.353Z,985.18
2023-01-09T07:07:47.344Z,985.15
2023-01-09T07:08:47.334Z,985.17
2023-01-09T07:09:47.315Z,985.2
2023-01-09T07:10:47.297Z,985.24
2023-01-09T07:11:47.300Z,985.25
2023-01-09T07:12:47.279Z,985.26
2023-01-09T07:13:47.273Z,985.26
2023-01-09T07:14:47.253Z,985.3
2023-01-09T07:15:47.244Z,985.36
2023-01-09T07:16:47.234Z,985.41
2023-01-09T07:17:47.221Z,985.42
2023-01-09T07:18:47.218Z,985.4
2023-01-09T07:19:47.199Z,985.42
2023-01-09T07:20:47.189Z,985.41
2023-01-09T07:21:47.180Z,985.4
2023-01-09T07:22:47.187Z,985.43
2023-01-09T07:23:47.166Z,985.39
2023-01-09T07:24:47.157Z,985.48
2023-01-09T07:25:47.137Z,985.48
2023-01-09T07:26:47.268Z,985.48
2023-01-09T07:27:47.140Z,985.49
2023-01-09T07:28:47.110Z,985.52
2023-01-09T07:29:47.110Z,985.47
2023-01-09T07:30:47.092Z,985.55
2023-01-09T07:31:47.107Z,985.57
2023-01-09T07:32:47.092Z,985.55
2023-01-09T07:33:47.062Z,985.59
2023-01-09T07:34:47.057Z,985.58
2023-01-09T07:35:47.031Z,985.6
2023-01-09T07:36:47.254Z,985.6
2023-01-09T07:37:47.026Z,985.59
2023-01-09T07:38:46.999Z,985.58
2023-01-09T07:39:47.005Z,985.6
2023-01-09T07:40:46.981Z,985.61
2023-01-09T07:41:46.970Z,985.57
2023-01-09T07:42:46.974Z,985.65
2023-01-09T07:43:47.079Z,985.62
2023-01-09T07:44:46.943Z,985.68
2023-01-09T07:45:46.930Z,985.68
2023-01-09T07:46:46.916Z,985.69
2023-01-09T07:47:46.905Z,985.69
2023-01-09T07:48:46.906Z,985.73
2023-01-09T07:49:46.913Z,985.72
2023-01-09T07:50:46.894Z,985.79
2023-01-09T07:51:46.937Z,985.74
2023-01-09T07:52:46.903Z,985.68
2023-01-09T07:53:46.847Z,985.71
2023-01-09T07:54:46.884Z,985.67
2023-01-09T07:55:46.851Z,985.66
2023-01-09T07:56:46.833Z,985.61
2023-01-09T07:57:46.827Z,985.63
2023-01-09T07:58:46.793Z,985.64
2023-01-09T07:59:46.785Z,985.63
2023-01-09T08:00:46.801Z,985.66
2023-01-09T08:01:46.783Z,985.65
2023-01-09T08:02:46.767Z,985.67
2023-01-09T08:03:46.749Z,985.69
2023-01-09T08:04:46.756Z,985.68
2023-01-09T08:05:46.728Z,985.66
2023-01-09T08:06:46.715Z,985.71
2023-01-09T08:07:46.704Z,985.72
2023-01-09T08:08:46.699Z,985.72
2023-01-09T08:09:46.673Z,985.71
2023-01-09T08:10:46.662Z,985.69
2023-01-09T08:11:46.669Z,985.72
2023-01-09T08:12:46.682Z,985.68
2023-01-09T08:13:46.632Z,985.72
2023-01-09T08:14:46.621Z,985.74
2023-01-09T08:15:46.615Z,985.66
2023-01-09T08:16:46.605Z,985.72
2023-01-09T08:17:46.607Z,985.79
2023-01-09T08:18:46.605Z,985.74
2023-01-09T08:19:46.572Z,985.74
2023-01-09T08:20:46.559Z,985.67
2023-01-09T08:21:46.547Z,985.72
2023-01-09T08:22:46.543Z,985.75
2023-01-09T08:23:46.541Z,985.73
2023-01-09T08:24:46.553Z,985.79
2023-01-09T08:25:46.513Z,985.8
2023-01-09T08:26:46.513Z,985.86
2023-01-09T08:27:46.487Z,985.87
2023-01-09T08:28:46.483Z,985.9
2023-01-09T08:29:46.484Z,985.86
2023-01-09T08:30:46.457Z,985.78
2023-01-09T08:31:46.642Z,985.77
2023-01-09T08:32:46.435Z,985.9
2023-01-09T08:33:46.425Z,985.79
2023-01-09T08:34:46.422Z,985.76
2023-01-09T08:35:46.449Z,985.81
2023-01-09T08:36:46.437Z,985.86
2023-01-09T08:37:46.426Z,985.82
2023-01-09T08:38:46.377Z,985.75
2023-01-09T08:39:46.366Z,985.84
2023-01-09T08:40:46.367Z,985.81
2023-01-09T08:41:46.332Z,985.81
2023-01-09T08:42:46.328Z,985.78
2023-01-09T08:43:46.319Z,985.75
2023-01-09T08:44:46.309Z,985.84
2023-01-09T08:45:46.310Z,985.8
2023-01-09T08:46:46.345Z,985.87
2023-01-09T08:47:46.276Z,985.84
2023-01-09T08:48:46.301Z,985.87
2023-01-09T08:49:46.284Z,985.81
2023-01-09T08:50:46.266Z,985.85
2023-01-09T08:51:46.241Z,985.91
2023-01-09T08:52:46.242Z,985.9
2023-01-09T08:53:46.206Z,985.89
2023-01-09T08:54:46.267Z,985.91
2023-01-09T08:55:46.188Z,985.98
2023-01-09T08:56:46.203Z,985.89
2023-01-09T08:57:46.201Z,985.94
2023-01-09T08:58:46.170Z,985.95
2023-01-09T08:59:46.146Z,985.99
2023-01-09T09:00:46.138Z,985.98
2023-01-09T09:01:46.122Z,985.95
2023-01-09T09:02:46.135Z,985.99
2023-01-09T09:03:46.118Z,986.02
2023-01-09T09:04:46.097Z,986
2023-01-09T09:05:46.086Z,985.97
2023-01-09T09:06:46.092Z,985.95
2023-01-09T09:07:46.072Z,986.01
2023-01-09T09:08:46.065Z,985.97
2023-01-09T09:09:46.046Z,986
2023-01-09T09:10:46.034Z,985.97
2023-01-09T09:11:46.018Z,985.99
2023-01-09T09:12:46.007Z,986.03
2023-01-09T09:13:46.049Z,985.99
2023-01-09T09:14:46.004Z,986.04
2023-01-09T09:15:46.004Z,986.06
2023-01-09T09:16:45.967Z,985.99
2023-01-09T09:17:45.965Z,985.98
2023-01-09T09:18:45.943Z,985.95
2023-01-09T09:19:45.991Z,985.94
2023-01-09T09:20:45.933Z,986.03
2023-01-09T09:21:46.049Z,985.98
2023-01-09T09:22:45.909Z,986.03
2023-01-09T09:23:45.892Z,985.99
2023-01-09T09:24:45.897Z,986.06
2023-01-09T09:25:45.873Z,986
2023-01-09T09:26:54.507Z,986
2023-01-09T09:27:53.502Z,985.94
2023-01-09T09:28:45.838Z,985.93
2023-01-09T09:29:45.824Z,985.96
2023-01-09T09:30:45.834Z,985.91
2023-01-09T09:31:45.814Z,985.94
2023-01-09T09:32:45.821Z,985.82
2023-01-09T09:33:45.838Z,985.9
2023-01-09T09:34:45.778Z,985.85
2023-01-09T09:35:45.773Z,985.88
2023-01-09T09:36:45.772Z,985.86
2023-01-09T09:37:45.751Z,985.94
2023-01-09T09:38:45.749Z,985.94
2023-01-09T09:39:45.729Z,986
2023-01-09T09:40:45.748Z,985.95
2023-01-09T09:41:45.794Z,986
2023-01-09T09:42:45.699Z,985.97
2023-01-09T09:43:45.685Z,985.93
2023-01-09T09:44:45.681Z,985.88
2023-01-09T09:45:45.699Z,985.91
2023-01-09T09:46:45.711Z,985.86
2023-01-09T09:47:45.638Z,985.87
2023-01-09T09:48:45.646Z,985.81
2023-01-09T09:49:45.629Z,985.89
2023-01-09T09:50:45.609Z,985.79
2023-01-09T09:51:45.603Z,985.8
2023-01-09T09:52:45.613Z,985.78
2023-01-09T09:53:45.584Z,985.92
2023-01-09T09:54:45.583Z,985.86
2023-01-09T09:55:45.553Z,985.8
2023-01-09T09:56:45.560Z,985.8
2023-01-09T09:57:45.538Z,985.77
2023-01-09T09:58:45.531Z,985.89
2023-01-09T09:59:45.512Z,985.88
2023-01-09T10:00:45.505Z,985.97
2023-01-09T10:01:45.506Z,985.98
2023-01-09T10:02:45.525Z,985.95
2023-01-09T10:03:45.471Z,985.96
2023-01-09T10:04:45.492Z,986
2023-01-09T10:05:45.485Z,985.99
2023-01-09T10:06:45.459Z,985.95
2023-01-09T10:07:45.465Z,985.92
2023-01-09T10:08:45.448Z,985.93
2023-01-09T10:09:45.446Z,985.96
2023-01-09T10:10:45.415Z,985.92
2023-01-09T10:11:45.402Z,986
2023-01-09T10:12:45.412Z,985.89
2023-01-09T10:13:45.386Z,985.94
2023-01-09T10:14:45.381Z,985.96
2023-01-09T10:15:45.350Z,985.87
2023-01-09T10:16:45.342Z,985.97
2023-01-09T10:17:45.351Z,985.88
2023-01-09T10:18:45.366Z,985.92
2023-01-09T10:19:45.338Z,985.92
2023-01-09T10:20:45.302Z,985.9
2023-01-09T10:21:45.284Z,985.92
2023-01-09T10:22:45.289Z,985.89
2023-01-09T10:23:45.276Z,985.97
2023-01-09T10:24:45.270Z,985.96
2023-01-09T10:25:45.269Z,985.9
2023-01-09T10:26:45.256Z,985.96
2023-01-09T10:27:45.229Z,985.81
2023-01-09T10:28:45.225Z,985.89
2023-01-09T10:29:45.361Z,985.81
2023-01-09T10:30:45.407Z,985.9
2023-01-09T10:31:45.229Z,985.88
2023-01-09T10:32:45.214Z,985.89
2023-01-09T10:33:45.171Z,985.8
2023-01-09T10:34:45.150Z,985.86
2023-01-09T10:35:45.138Z,985.81
2023-01-09T10:36:45.142Z,985.84
2023-01-09T10:37:45.121Z,985.83
2023-01-09T10:38:45.165Z,985.76
2023-01-09T10:39:45.283Z,985.81
2023-01-09T10:40:45.110Z,985.81
2023-01-09T10:41:45.628Z,985.81
2023-01-09T10:42:45.374Z,985.69
2023-01-09T10:43:45.084Z,985.8
2023-01-09T10:44:45.059Z,985.71
2023-01-09T10:45:45.041Z,985.78
2023-01-09T10:46:45.039Z,985.71
2023-01-09T10:47:45.024Z,985.76
2023-01-09T10:48:45.033Z,985.77
2023-01-09T10:49:45.011Z,985.81
2023-01-09T10:50:44.995Z,985.82
2023-01-09T10:51:45.038Z,985.81
2023-01-09T10:52:44.966Z,985.69
2023-01-09T10:53:44.998Z,985.8
2023-01-09T10:54:44.939Z,985.72
2023-01-09T10:55:44.926Z,985.86
2023-01-09T10:56:44.959Z,985.86
2023-01-09T10:57:45.179Z,985.79
2023-01-09T10:58:44.902Z,985.82
2023-01-09T10:59:44.884Z,985.83
2023-01-09T11:00:44.888Z,985.91
2023-01-09T11:01:44.953Z,985.74
2023-01-09T11:02:44.879Z,985.79
2023-01-09T11:03:44.844Z,985.85
2023-01-09T11:04:44.848Z,985.84
2023-01-09T11:05:44.830Z,985.75
2023-01-09T11:06:44.814Z,985.78
2023-01-09T11:07:44.821Z,985.8
2023-01-09T11:08:44.797Z,985.83
2023-01-09T11:09:44.785Z,985.82
2023-01-09T11:10:44.773Z,985.85
2023-01-09T11:11:44.765Z,985.83
2023-01-09T11:12:44.753Z,985.87
2023-01-09T11:13:44.742Z,985.84
2023-01-09T11:14:44.893Z,985.82
2023-01-09T11:15:45.719Z,985.72
2023-01-09T11:16:44.717Z,985.83
2023-01-09T11:17:44.919Z,985.86
2023-01-09T11:18:44.715Z,985.91
2023-01-09T11:19:44.701Z,985.88
2023-01-09T11:24:56.842Z,986.02
2023-01-09T11:27:07.175Z,985.95
2023-01-09T11:28:08.104Z,985.96
2023-01-09T11:29:07.085Z,985.96
2023-01-09T11:30:07.086Z,985.93
2023-01-09T11:31:07.643Z,985.93
2023-01-09T11:32:07.052Z,985.95
2023-01-09T11:33:07.049Z,986.02
2023-01-09T11:34:07.046Z,985.88
2023-01-09T11:35:07.020Z,985.91
2023-01-09T11:36:07.139Z,985.91
2023-01-09T11:37:07.017Z,985.97
2023-01-09T11:38:07.002Z,985.93
2023-01-09T11:39:07.439Z,985.97
2023-01-09T11:40:07.853Z,985.95
2023-01-09T11:41:06.951Z,985.98
2023-01-09T11:42:06.947Z,986.18
2023-01-09T11:43:06.949Z,986.05
2023-01-09T11:44:06.976Z,986.13
2023-01-09T11:45:06.933Z,986.05
2023-01-09T11:46:06.926Z,986.11
2023-01-09T11:47:06.901Z,986.05
2023-01-09T11:48:06.882Z,986.06
2023-01-09T11:49:06.872Z,986.01
2023-01-09T11:50:06.866Z,985.97
2023-01-09T11:51:06.874Z,986.06
2023-01-09T11:52:06.842Z,986.03
2023-01-09T11:53:06.839Z,986.01
2023-01-09T11:54:06.817Z,986.04
2023-01-09T11:55:06.834Z,986.01
2023-01-09T11:56:06.814Z,986.05
2023-01-09T11:57:06.798Z,985.96
2023-01-09T11:58:06.777Z,985.94
2023-01-09T11:59:06.827Z,985.95
2023-01-09T12:00:06.782Z,986
2023-01-09T12:01:06.758Z,985.99
2023-01-09T12:02:06.742Z,986.02
2023-01-09T12:03:07.225Z,986.03
2023-01-09T12:04:06.721Z,986.06
2023-01-09T12:05:06.720Z,986.11
2023-01-09T12:06:06.707Z,986.06
2023-01-09T12:07:06.685Z,986.1
2023-01-09T12:08:06.688Z,986.13
2023-01-09T12:09:06.707Z,986.06
2023-01-09T12:10:06.656Z,986.12
2023-01-09T12:11:06.645Z,986.07
2023-01-09T12:12:06.634Z,986.07
2023-01-09T12:13:06.623Z,986.04
2023-01-09T12:14:06.613Z,986.11
2023-01-09T12:15:06.641Z,986.07
2023-01-09T12:16:06.593Z,986.17
2023-01-09T12:17:06.676Z,986.08
2023-01-09T12:18:06.632Z,986.02
2023-01-09T12:19:06.572Z,986.06
2023-01-09T12:20:06.574Z,986.05
2023-01-09T12:21:06.552Z,986.06
2023-01-09T12:22:06.536Z,986.04
2023-01-09T12:23:06.535Z,986.03
2023-01-09T12:24:06.531Z,986.02
2023-01-09T12:25:06.521Z,986.05
2023-01-09T12:26:06.558Z,986.01
2023-01-09T12:27:07.487Z,985.92
2023-01-09T12:28:06.466Z,985.98
2023-01-09T12:29:06.475Z,985.96
2023-01-09T12:30:06.875Z,985.88
2023-01-09T12:31:06.468Z,985.95
2023-01-09T12:32:06.495Z,985.92
2023-01-09T12:33:06.570Z,986.09
2023-01-09T12:34:06.835Z,985.89
2023-01-09T12:35:06.401Z,986
2023-01-09T12:36:06.400Z,985.88
2023-01-09T12:37:06.413Z,985.98